Latest Weather Observations for Gladstone

IDQ60801

Issued at 10:05 am EST Friday 28 November 2014 (issued every 30 minutes, with the page automatically refreshed every 10 minutes)

About weather observations | Map of weather stations | Latest weather observations for QLD | Other Formats
Station Details ID: 039123 Name: GLADSTONE RADAR Lat: -23.86 Lon: 151.26 Height: 74.5 m
Data from the previous 72 hours. | See also: Recent months at Gladstone
Date/Time
EST
Temp
°C
App
Temp
°C
Dew
Point
Rel
Hum
%
Delta-T
°C
Wind Press
QNH
hPa
Press
MSL
hPa
Rain
since 9 am
mm
Dir
 
Spd
km/h
Gust
km/h
Spd
kts
Gust
kts
28/10:00am 29.4 27.7 18.2 51 7.2 E 24 37 13 20 1016.2 1015.8 0.0
28/09:30am 28.1 26.7 17.9 54 6.5 E 22 33 12 18 1016.4 1016.0 0.0
28/09:00am 28.9 26.1 17.4 49 7.3 E 28 37 15 20 1016.3 1015.9 0.0
28/08:30am 28.4 28.0 19.3 57 5.9 ESE 20 28 11 15 1016.4 1016.0 0.0
28/08:00am 26.9 26.7 19.3 63 4.9 ESE 19 30 10 16 1016.4 1016.0 0.0
28/07:30am 25.5 25.4 18.7 66 4.3 ESE 17 24 9 13 1016.3 1015.9 0.0
28/07:00am 24.6 24.1 19.2 72 3.5 ESE 20 30 11 16 1015.9 1015.5 0.0
28/06:30am 23.8 24.6 19.1 75 3.0 SE 13 19 7 10 1015.7 1015.3 0.0
28/06:00am 23.4 24.0 18.7 75 3.0 ESE 13 17 7 9 1015.4 1015.0 0.0
28/05:30am 24.2 22.9 18.2 69 3.8 E 22 32 12 17 1015.0 1014.6 0.0
28/05:00am 24.1 22.5 18.3 70 3.7 E 24 32 13 17 1014.6 1014.2 0.0
28/04:30am 23.9 22.3 18.3 71 3.5 E 24 32 13 17 1014.2 1013.8 0.0
28/04:00am 24.0 22.6 18.9 73 3.2 E 24 32 13 17 1013.8 1013.4 0.0
28/03:30am 23.9 22.0 18.5 72 3.4 E 26 39 14 21 1013.7 1013.3 0.0
28/03:00am 23.9 22.4 18.5 72 3.4 E 24 35 13 19 1013.6 1013.2 0.0
28/02:30am 23.7 24.4 19.6 78 2.6 ESE 15 24 8 13 1013.9 1013.5 0.0
28/02:00am 23.7 24.0 19.6 78 2.6 SE 17 26 9 14 1014.2 1013.8 0.0
28/01:30am 23.5 24.3 19.8 80 2.4 SE 15 20 8 11 1014.4 1014.0 0.0
28/01:00am 23.4 23.9 20.1 82 2.1 SE 17 24 9 13 1014.6 1014.2 0.0
28/12:30am 24.7 24.4 19.5 73 3.4 E 20 32 11 17 1014.6 1014.2 0.0
28/12:00am 24.5 24.1 19.3 73 3.3 E 20 28 11 15 1014.5 1014.1 0.0
 
Date/Time
EST
Temp
°C
App
Temp
°C
Dew
Point
Rel
Hum
%
Delta-T
°C
Wind Press
QNH
hPa
Press
MSL
hPa
Rain
since 9 am
mm
Dir
 
Spd
km/h
Gust
km/h
Spd
kts
Gust
kts
27/11:30pm 24.7 24.4 19.5 73 3.4 E 20 32 11 17 1014.8 1014.4 0.0
27/11:00pm 24.8 24.1 19.4 72 3.5 E 22 32 12 17 1015.2 1014.8 0.0
27/10:30pm 24.7 24.7 19.8 74 3.2 E 19 26 10 14 1015.3 1014.9 0.0
27/10:00pm 24.7 25.1 19.8 74 3.2 E 17 26 9 14 1015.3 1014.9 0.0
27/09:30pm 24.4 24.4 19.7 75 3.0 ENE 19 28 10 15 1015.3 1014.9 0.0
27/09:00pm 24.6 24.7 19.9 75 3.0 ENE 19 24 10 13 1015.0 1014.6 0.0
27/08:30pm 24.7 25.1 19.8 74 3.2 ENE 17 22 9 12 1014.8 1014.4 0.0
27/08:00pm 24.8 25.6 19.8 74 3.2 ENE 15 20 8 11 1014.4 1014.0 0.0
27/07:30pm 24.8 25.9 19.6 73 3.4 ENE 13 20 7 11 1014.2 1013.8 0.0
27/07:00pm 25.0 26.0 19.4 71 3.6 ENE 13 19 7 10 1013.9 1013.5 0.0
27/06:30pm 25.4 26.1 18.8 67 4.2 NE 13 20 7 11 1013.8 1013.4 0.0
27/06:00pm 26.0 26.5 19.2 66 4.4 NE 15 22 8 12 1013.6 1013.2 0.0
27/05:30pm 26.5 26.7 19.4 65 4.6 NE 17 24 9 13 1013.2 1012.8 0.0
27/05:00pm 27.2 26.8 19.0 61 5.3 ENE 19 26 10 14 1013.2 1012.8 0.0
27/04:30pm 27.8 27.6 19.8 61 5.2 ENE 20 30 11 16 1012.8 1012.4 0.0
27/04:00pm 27.6 26.9 19.4 61 5.3 ENE 22 30 12 16 1012.8 1012.4 0.0
27/03:30pm 28.7 28.3 19.3 56 6.1 ENE 20 28 11 15 1012.7 1012.3 0.0
27/03:00pm 29.8 29.5 19.5 54 6.7 ENE 20 30 11 16 1012.7 1012.3 0.0
27/02:30pm 30.0 30.1 19.1 52 7.1 NE 17 26 9 14 1012.9 1012.5 0.0
27/02:00pm 30.6 30.2 19.0 50 7.6 ENE 19 30 10 16 1013.2 1012.8 0.0
27/01:30pm 32.1 32.1 19.7 48 8.2 ENE 19 32 10 17 1013.3 1012.9 0.0
27/01:00pm 31.1 30.7 18.8 48 8.0 NE 19 28 10 15 1013.6 1013.2 0.0
27/12:30pm 32.6 32.9 19.5 46 8.6 NE 17 24 9 13 1014.1 1013.7 0.0
27/12:00pm 31.7 31.3 19.0 47 8.3 ENE 19 26 10 14 1014.4 1014.0 0.0
27/11:30am 31.6 31.7 19.9 50 7.7 ENE 19 26 10 14 1014.7 1014.3 0.0
27/11:00am 31.9 32.2 19.5 47 8.2 NE 17 24 9 13 1015.3 1014.9 0.0
27/10:30am 31.6 32.5 19.2 47 8.1 ENE 13 24 7 13 1015.6 1015.2 0.0
27/10:00am 31.2 31.0 18.5 46 8.2 NE 17 24 9 13 1015.7 1015.3 0.0
27/09:30am 31.1 31.7 19.4 49 7.7 NE 15 24 8 13 1016.0 1015.6 0.0
27/09:00am 30.4 31.8 20.3 54 6.7 NE 13 22 7 12 1016.2 1015.8 0.0
27/08:30am 28.0 28.4 19.0 58 5.8 ENE 15 22 8 12 1016.1 1015.7 0.0
27/08:00am 29.7 31.3 20.0 56 6.4 ENE 11 19 6 10 1016.0 1015.6 0.0
27/07:30am 28.5 28.7 19.4 57 5.9 ENE 17 24 9 13 1016.1 1015.7 0.0
27/07:00am 27.7 27.6 19.5 61 5.3 ENE 19 26 10 14 1015.9 1015.5 0.0
27/06:30am 26.2 27.1 20.1 69 4.0 ENE 15 24 8 13 1015.7 1015.3 0.0
27/06:00am 25.0 26.0 20.3 75 3.1 ENE 15 24 8 13 1015.3 1014.9 0.0
27/05:30am 24.0 25.0 20.3 80 2.4 ENE 15 22 8 12 1014.6 1014.2 0.0
27/05:00am 23.7 24.7 20.2 81 2.3 ENE 15 26 8 14 1014.5 1014.1 0.0
27/04:30am 23.3 25.1 20.4 84 1.9 E 11 17 6 9 1014.5 1014.1 0.0
27/04:00am 23.1 25.5 20.1 83 1.9 SSE 7 11 4 6 1014.5 1014.1 0.0
27/03:30am 23.1 25.2 20.1 83 1.9 SSE 9 15 5 8 1014.4 1014.0 0.0
27/03:00am 23.0 25.0 20.0 83 1.9 S 9 15 5 8 1014.4 1014.0 0.0
27/02:30am 23.3 25.3 19.9 81 2.2 ESE 9 15 5 8 1014.4 1014.0 0.0
27/02:00am 23.9 23.9 19.8 78 2.6 E 19 28 10 15 1014.5 1014.1 0.0
27/01:30am 24.1 24.1 20.2 79 2.5 E 20 26 11 14 1014.6 1014.2 0.0
27/01:00am 24.2 25.3 20.5 80 2.4 E 15 20 8 11 1015.1 1014.7 0.0
27/12:30am 24.1 24.1 19.8 77 2.8 ENE 19 26 10 14 1015.4 1015.0 0.0
27/12:00am 24.2 24.2 19.7 76 2.9 ENE 19 26 10 14 1015.6 1015.2 0.0
 
Date/Time
EST
Temp
°C
App
Temp
°C
Dew
Point
Rel
Hum
%
Delta-T
°C
Wind Press
QNH
hPa
Press
MSL
hPa
Rain
since 9 am
mm
Dir
 
Spd
km/h
Gust
km/h
Spd
kts
Gust
kts
26/11:30pm 24.2 24.2 20.1 78 2.7 E 20 30 11 16 1015.9 1015.5 0.0
26/11:00pm 24.5 23.9 19.8 75 3.0 E 22 32 12 17 1016.0 1015.6 0.0
26/10:30pm 24.5 23.6 19.8 75 3.0 E 24 33 13 18 1016.1 1015.7 0.0
26/10:00pm 24.4 23.6 20.1 77 2.8 ENE 24 37 13 20 1015.9 1015.5 0.0
26/09:30pm 24.4 24.0 20.1 77 2.8 ENE 22 32 12 17 1016.0 1015.6 0.0
26/09:00pm 24.4 24.5 20.3 78 2.7 E 20 32 11 17 1015.9 1015.5 0.0
26/08:30pm 24.5 24.7 20.2 77 2.8 E 19 26 10 14 1015.8 1015.4 0.0
26/08:00pm 24.7 24.8 20.4 77 2.8 E 20 28 11 15 1015.8 1015.4 0.0
26/07:30pm 24.7 24.8 20.4 77 2.8 E 20 30 11 16 1015.2 1014.8 0.0
26/07:00pm 24.8 24.6 19.8 74 3.2 E 20 30 11 16 1014.9 1014.5 0.0
26/06:30pm 25.1 24.5 19.7 72 3.5 ENE 22 32 12 17 1014.4 1014.0 0.0
26/06:00pm 25.7 25.4 19.6 69 3.9 ENE 20 28 11 15 1014.3 1013.9 0.0
26/05:30pm 26.1 25.4 19.5 67 4.3 ENE 22 30 12 16 1014.2 1013.8 0.0
26/05:00pm 27.5 27.5 19.8 63 5.0 ENE 19 30 10 16 1014.0 1013.6 0.0
26/04:30pm 28.0 27.7 20.3 63 5.1 ENE 22 32 12 17 1013.9 1013.5 0.0
26/04:00pm 29.3 29.3 21.0 61 5.5 ENE 22 30 12 16 1013.8 1013.4 0.0
26/03:30pm 28.9 28.3 20.6 61 5.5 ENE 24 35 13 19 1013.8 1013.4 0.0
26/03:00pm 29.3 28.7 20.5 59 5.8 ENE 24 33 13 18 1013.7 1013.3 0.0
26/02:30pm 29.7 29.1 19.7 55 6.6 ENE 22 33 12 18 1014.0 1013.6 0.0
26/02:00pm 30.3 29.6 19.6 52 7.0 ENE 22 32 12 17 1014.2 1013.8 0.0
26/01:30pm 31.0 30.5 20.0 52 7.3 ENE 22 30 12 16 1014.5 1014.1 0.0
26/01:00pm 31.3 31.4 20.3 52 7.3 ENE 20 30 11 16 1014.7 1014.3 0.0
26/12:30pm 31.7 31.4 20.3 50 7.6 ENE 22 32 12 17 1015.0 1014.6 0.0
26/12:00pm 31.8 31.9 20.4 51 7.6 ENE 20 28 11 15 1015.5 1015.1 0.0
26/11:30am 31.1 30.3 20.1 52 7.3 ENE 24 32 13 17 1015.6 1015.2 0.0
26/11:00am 31.6 30.7 19.9 50 7.7 ENE 24 33 13 18 1015.9 1015.5 0.0
26/10:30am 31.8 31.8 21.0 52 7.3 ENE 22 33 12 18 1015.9 1015.5 0.0
26/10:00am 30.8 29.5 20.7 55 6.7 ENE 28 35 15 19 1016.0 1015.6 0.0
26/09:30am 30.2 29.5 20.2 55 6.6 ENE 24 35 13 19 1016.1 1015.7 0.0
26/09:00am 30.6 30.8 20.5 54 6.7 ENE 20 32 11 17 1016.1 1015.7 0.0
26/08:30am 29.5 28.9 20.6 58 5.9 ENE 24 32 13 17 1016.2 1015.8 0.0
26/08:00am 29.3 29.3 20.2 58 6.0 ENE 20 30 11 16 1016.3 1015.9 0.0
26/07:30am 27.7 27.9 21.3 68 4.3 ENE 22 30 12 16 1016.0 1015.6 0.0
26/07:00am 28.1 28.9 21.4 67 4.5 ENE 19 28 10 15 1015.7 1015.3 0.0
26/06:30am 26.7 27.2 21.9 75 3.2 ENE 22 33 12 18 1015.4 1015.0 0.0
26/06:00am 24.9 25.8 21.6 82 2.2 ENE 19 28 10 15 1015.1 1014.7 0.0
26/05:30am 24.7 26.3 22.2 86 1.7 ENE 17 24 9 13 1014.8 1014.4 0.0
26/05:00am 24.3 26.3 22.2 88 1.4 ENE 15 22 8 12 1014.4 1014.0 0.0
26/04:30am 24.1 26.0 22.0 88 1.4 ENE 15 22 8 12 1014.4 1014.0 0.0
26/04:00am 24.2 26.4 21.9 87 1.5 ENE 13 20 7 11 1014.3 1013.9 0.0
26/03:30am 24.5 26.6 22.4 88 1.4 ENE 15 20 8 11 1014.1 1013.7 0.0
26/03:00am 24.4 27.1 22.1 87 1.5 ENE 11 15 6 8 1014.3 1013.9 0.0
26/02:30am 24.5 27.6 22.2 87 1.5 NE 9 13 5 7 1013.9 1013.5 0.0
26/02:00am 24.3 27.9 22.4 89 1.3 NNE 7 13 4 7 1013.7 1013.3 0.0
26/01:30am 24.1 27.4 21.8 87 1.5 NNE 7 11 4 6 1013.6 1013.2 0.0
26/01:00am 24.6 28.1 22.1 86 1.7 N 7 11 4 6 1013.8 1013.4 0.0
26/12:30am 24.6 28.3 22.5 88 1.4 N 7 13 4 7 1014.0 1013.6 0.0
26/12:00am 24.4 27.6 22.3 88 1.4 N 9 17 5 9 1014.1 1013.7 0.0
 
Date/Time
EST
Temp
°C
App
Temp
°C
Dew
Point
Rel
Hum
%
Delta-T
°C
Wind Press
QNH
hPa
Press
MSL
hPa
Rain
since 9 am
mm
Dir
 
Spd
km/h
Gust
km/h
Spd
kts
Gust
kts
25/11:30pm 24.8 28.2 22.7 88 1.4 N 9 17 5 9 1014.6 1014.2 0.0
25/11:00pm 24.9 27.8 22.4 86 1.7 N 11 19 6 10 1015.1 1014.7 0.0
25/10:30pm 25.2 28.0 22.3 84 1.9 NE 11 20 6 11 1015.3 1014.9 0.0
25/10:00pm 25.3 28.6 22.6 85 1.8 NE 9 17 5 9 1015.5 1015.1 0.0
25/09:30pm 25.3 27.5 22.6 85 1.8 NE 15 22 8 12 1015.6 1015.2 0.0
25/09:00pm 25.4 27.9 22.5 84 2.0 NE 13 20 7 11 1015.4 1015.0 0.0
25/08:30pm 25.5 28.2 22.8 85 1.8 NE 13 20 7 11 1015.1 1014.7 0.0
25/08:00pm 25.3 27.9 22.6 85 1.8 NE 13 24 7 13 1014.9 1014.5 0.0
25/07:30pm 25.2 27.6 22.3 84 1.9 NE 13 20 7 11 1014.4 1014.0 0.0
25/07:00pm 25.3 27.2 22.0 82 2.2 NE 15 24 8 13 1014.1 1013.7 0.0
25/06:30pm 25.5 27.3 21.8 80 2.5 NE 15 22 8 12 1013.8 1013.4 0.0
25/06:00pm 26.2 27.2 21.8 77 2.9 ENE 19 24 10 13 1013.4 1013.0 0.0
25/05:30pm 26.8 27.9 21.3 72 3.7 NE 17 24 9 13 1013.0 1012.6 0.0
25/05:00pm 28.0 29.5 21.3 67 4.5 NE 15 22 8 12 1012.8 1012.4 0.0
25/04:30pm 28.6 29.1 20.9 63 5.1 NE 19 26 10 14 1012.5 1012.1 0.0
25/04:00pm 29.4 30.1 20.5 58 5.9 NE 17 26 9 14 1012.7 1012.3 0.0
25/03:30pm 30.3 31.2 20.8 56 6.3 NE 17 24 9 13 1012.8 1012.4 0.0
25/03:00pm 31.0 31.4 20.6 54 6.9 ENE 19 28 10 15 1012.9 1012.5 0.0
25/02:30pm 32.4 33.2 20.6 49 7.9 ENE 17 28 9 15 1013.0 1012.6 0.0
25/02:00pm 32.1 32.2 20.4 50 7.8 ENE 20 28 11 15 1013.2 1012.8 0.0
25/01:30pm 31.8 31.8 20.1 50 7.8 ENE 20 28 11 15 1013.6 1013.2 0.0
25/01:00pm 32.3 31.8 19.2 46 8.6 ENE 20 30 11 16 1013.8 1013.4 0.0
25/12:30pm 32.7 32.7 18.1 42 9.5 NE 15 22 8 12 1014.3 1013.9 0.0
25/12:00pm 31.8 31.0 16.1 38 9.8 ENE 15 22 8 12 1014.8 1014.4 0.0
25/11:30am 33.1 33.3 17.7 40 9.9 ENE 13 22 7 12 1015.0 1014.6 0.0
25/11:00am 31.6 31.3 18.2 44 8.7 ENE 17 22 9 12 1015.3 1014.9 0.0
25/10:30am 31.8 31.9 18.4 45 8.7 ENE 15 22 8 12 1015.8 1015.4 0.0

Other Formats:

Comma delimited format used in spreadsheet applications
http://www.bom.gov.au/fwo/IDQ60801/IDQ60801.94380.axf

JavaScript Object Notation format (JSON) in row-major order
http://www.bom.gov.au/fwo/IDQ60801/IDQ60801.94380.json